Time,TemperatureF,DewpointF,PressureIn,WindDirection,WindDirectionDegrees,WindSpeedMPH,WindSpeedGustMPH,Humidity,HourlyPrecipIn,Conditions,Clouds,dailyrainin,SoftwareType,DateUTC
2013-05-03 00:04:00,61.2,30.0,30.10,SSE,158,0.0,-999.0,31,-99.99,,,0.00,weatherlink.com 1.10,2013-05-03 04:04:00,
2013-05-03 00:19:00,60.5,30.0,30.11,ESE,107,0.0,-999.0,32,-99.99,,,0.00,weatherlink.com 1.10,2013-05-03 04:19:00,
2013-05-03 00:34:00,60.7,31.0,30.11,SE,144,0.0,-999.0,33,-99.99,,,0.00,weatherlink.com 1.10,2013-05-03 04:34:00,
2013-05-03 00:49:00,60.5,32.0,30.10,East,99,1.0,-999.0,34,-99.99,,,0.00,weatherlink.com 1.10,2013-05-03 04:49:00,
2013-05-03 01:04:00,60.1,31.0,30.10,SE,140,5.0,-999.0,34,-99.99,,,0.00,weatherlink.com 1.10,2013-05-03 05:04:00,
2013-05-03 01:19:00,59.9,31.0,30.10,ESE,114,0.0,-999.0,34,-99.99,,,0.00,weatherlink.com 1.10,2013-05-03 05:19:00,
2013-05-03 01:34:00,59.5,32.0,30.10,SE,136,3.0,-999.0,35,-99.99,,,0.00,weatherlink.com 1.10,2013-05-03 05:34:00,
2013-05-03 01:49:00,58.9,32.0,30.10,ESE,113,1.0,-999.0,36,-99.99,,,0.00,weatherlink.com 1.10,2013-05-03 05:49:00,
2013-05-03 02:04:00,58.6,34.0,30.09,ENE,75,0.0,-999.0,39,-99.99,,,0.00,weatherlink.com 1.10,2013-05-03 06:04:00,
2013-05-03 02:19:00,58.6,34.0,30.09,NE,47,0.0,-999.0,40,-99.99,,,0.00,weatherlink.com 1.10,2013-05-03 06:19:00,
2013-05-03 02:34:00,58.0,35.0,30.09,South,178,5.0,-999.0,42,-99.99,,,0.00,weatherlink.com 1.10,2013-05-03 06:34:00,
2013-05-03 02:49:00,57.6,36.0,30.09,NE,47,0.0,-999.0,44,-99.99,,,0.00,weatherlink.com 1.10,2013-05-03 06:49:00,
2013-05-03 03:04:00,57.0,36.0,30.09,East,100,5.0,-999.0,45,-99.99,,,0.00,weatherlink.com 1.10,2013-05-03 07:04:00,
2013-05-03 03:19:00,56.7,36.0,30.08,East,93,0.0,-999.0,46,-99.99,,,0.00,weatherlink.com 1.10,2013-05-03 07:19:00,
2013-05-03 03:34:00,56.5,36.0,30.08,SW,229,0.0,-999.0,46,-99.99,,,0.00,weatherlink.com 1.10,2013-05-03 07:34:00,
2013-05-03 03:49:00,56.3,37.0,30.09,SE,138,3.0,-999.0,48,-99.99,,,0.00,weatherlink.com 1.10,2013-05-03 07:49:00,
2013-05-03 04:04:00,56.0,37.0,30.08,SE,143,0.0,-999.0,49,-99.99,,,0.00,weatherlink.com 1.10,2013-05-03 08:04:00,
2013-05-03 04:19:00,55.7,37.0,30.08,ESE,114,3.0,-999.0,50,-99.99,,,0.00,weatherlink.com 1.10,2013-05-03 08:19:00,
2013-05-03 04:34:00,55.6,37.0,30.08,NE,55,0.0,-999.0,50,-99.99,,,0.00,weatherlink.com 1.10,2013-05-03 08:34:00,
2013-05-03 04:49:00,55.3,37.0,30.08,SE,127,0.0,-999.0,51,-99.99,,,0.00,weatherlink.com 1.10,2013-05-03 08:49:00,
2013-05-03 05:04:00,55.0,37.0,30.08,East,97,0.0,-999.0,51,-99.99,,,0.00,weatherlink.com 1.10,2013-05-03 09:04:00,
2013-05-03 05:19:00,54.8,36.0,30.08,ESE,112,0.0,-999.0,50,-99.99,,,0.00,weatherlink.com 1.10,2013-05-03 09:19:00,
2013-05-03 05:34:00,54.5,36.0,30.08,ESE,119,1.0,-999.0,50,-99.99,,,0.00,weatherlink.com 1.10,2013-05-03 09:34:00,
2013-05-03 05:49:00,54.5,34.0,30.09,ESE,116,0.0,-999.0,47,-99.99,,,0.00,weatherlink.com 1.10,2013-05-03 09:49:00,
2013-05-03 06:04:00,54.5,35.0,30.10,East,95,2.0,-999.0,48,-99.99,,,0.00,weatherlink.com 1.10,2013-05-03 10:04:00,
2013-05-03 06:19:00,54.4,35.0,30.10,ESE,123,1.0,-999.0,49,-99.99,,,0.00,weatherlink.com 1.10,2013-05-03 10:19:00,
2013-05-03 06:34:00,54.4,35.0,30.11,East,97,0.0,-999.0,49,-99.99,,,0.00,weatherlink.com 1.10,2013-05-03 10:34:00,
2013-05-03 06:49:00,54.2,36.0,30.11,SE,134,5.0,-999.0,51,-99.99,,,0.00,weatherlink.com 1.10,2013-05-03 10:49:00,
2013-05-03 07:04:00,54.1,36.0,30.12,SE,133,0.0,-999.0,51,-99.99,,,0.00,weatherlink.com 1.10,2013-05-03 11:04:00,
2013-05-03 07:19:00,54.7,36.0,30.12,SE,128,1.0,-999.0,50,-99.99,,,0.00,weatherlink.com 1.10,2013-05-03 11:19:00,
2013-05-03 07:34:00,55.3,36.0,30.12,ESE,121,5.0,-999.0,49,-99.99,,,0.00,weatherlink.com 1.10,2013-05-03 11:34:00,
2013-05-03 07:49:00,56.2,36.0,30.12,SE,126,0.0,-999.0,47,-99.99,,,0.00,weatherlink.com 1.10,2013-05-03 11:49:00,
2013-05-03 08:04:00,57.5,36.0,30.13,ESE,120,0.0,-999.0,44,-99.99,,,0.00,weatherlink.com 1.10,2013-05-03 12:04:00,
2013-05-03 08:19:00,58.9,36.0,30.12,East,100,10.0,-999.0,42,-99.99,,,0.00,weatherlink.com 1.10,2013-05-03 12:19:00,
2013-05-03 08:34:00,59.6,35.0,30.13,SSE,165,9.0,-999.0,40,-99.99,,,0.00,weatherlink.com 1.10,2013-05-03 12:34:00,
2013-05-03 08:49:00,60.1,34.0,30.12,SE,141,0.0,-999.0,38,-99.99,,,0.00,weatherlink.com 1.10,2013-05-03 12:49:00,
2013-05-03 09:04:00,61.0,35.0,30.13,ESE,109,0.0,-999.0,38,-99.99,,,0.00,weatherlink.com 1.10,2013-05-03 13:04:00,
2013-05-03 09:19:00,61.6,36.0,30.13,SSW,208,1.0,-999.0,38,-99.99,,,0.00,weatherlink.com 1.10,2013-05-03 13:19:00,
2013-05-03 09:34:00,61.6,36.0,30.13,NNW,343,2.0,-999.0,39,-99.99,,,0.00,weatherlink.com 1.10,2013-05-03 13:34:00,
2013-05-03 09:49:00,62.7,35.0,30.12,South,176,5.0,-999.0,36,-99.99,,,0.00,weatherlink.com 1.10,2013-05-03 13:49:00,
2013-05-03 10:04:00,63.5,34.0,30.12,South,176,0.0,-999.0,34,-99.99,,,0.00,weatherlink.com 1.10,2013-05-03 14:04:00,
2013-05-03 10:19:00,64.5,36.0,30.12,East,95,1.0,-999.0,35,-99.99,,,0.00,weatherlink.com 1.10,2013-05-03 14:19:00,
2013-05-03 10:34:00,65.2,34.0,30.12,East,100,8.0,-999.0,32,-99.99,,,0.00,weatherlink.com 1.10,2013-05-03 14:34:00,
2013-05-03 10:49:00,66.3,32.0,30.12,SSW,210,5.0,-999.0,28,-99.99,,,0.00,weatherlink.com 1.10,2013-05-03 14:49:00,
2013-05-03 11:04:00,66.9,33.0,30.12,SE,145,1.0,-999.0,28,-99.99,,,0.00,weatherlink.com 1.10,2013-05-03 15:04:00,
2013-05-03 11:19:00,66.6,32.0,30.12,ESE,113,6.0,-999.0,28,-99.99,,,0.00,weatherlink.com 1.10,2013-05-03 15:19:00,
2013-05-03 11:34:00,67.4,34.0,30.12,South,191,4.0,-999.0,29,-99.99,,,0.00,weatherlink.com 1.10,2013-05-03 15:34:00,
2013-05-03 11:49:00,67.9,34.0,30.12,ESE,121,1.0,-999.0,29,-99.99,,,0.00,weatherlink.com 1.10,2013-05-03 15:49:00,
2013-05-03 12:04:00,68.9,34.0,30.11,ESE,113,2.0,-999.0,28,-99.99,,,0.00,weatherlink.com 1.10,2013-05-03 16:04:00,
2013-05-03 12:19:00,68.9,38.0,30.11,South,186,11.0,-999.0,32,-99.99,,,0.00,weatherlink.com 1.10,2013-05-03 16:19:00,
2013-05-03 12:34:00,69.6,41.0,30.11,ESE,110,2.0,-999.0,35,-99.99,,,0.00,weatherlink.com 1.10,2013-05-03 16:34:00,
2013-05-03 12:49:00,70.6,40.0,30.10,ENE,78,5.0,-999.0,33,-99.99,,,0.00,weatherlink.com 1.10,2013-05-03 16:49:00,
2013-05-03 13:04:00,71.1,39.0,30.09,SSE,157,0.0,-999.0,31,-99.99,,,0.00,weatherlink.com 1.10,2013-05-03 17:04:00,
2013-05-03 13:19:00,72.0,40.0,30.09,South,182,12.0,-999.0,32,-99.99,,,0.00,weatherlink.com 1.10,2013-05-03 17:19:00,
2013-05-03 13:34:00,72.5,38.0,30.08,ENE,58,0.0,-999.0,29,-99.99,,,0.00,weatherlink.com 1.10,2013-05-03 17:34:00,
2013-05-03 13:49:00,73.0,39.0,30.08,ESE,109,8.0,-999.0,29,-99.99,,,0.00,weatherlink.com 1.10,2013-05-03 17:49:00,
2013-05-03 14:04:00,73.0,38.0,30.07,ESE,107,10.0,-999.0,28,-99.99,,,0.00,weatherlink.com 1.10,2013-05-03 18:04:00,
2013-05-03 14:19:00,73.7,39.0,30.07,ESE,102,5.0,-999.0,28,-99.99,,,0.00,weatherlink.com 1.10,2013-05-03 18:19:00,
2013-05-03 14:34:00,73.5,36.0,30.07,South,179,3.0,-999.0,26,-99.99,,,0.00,weatherlink.com 1.10,2013-05-03 18:34:00,
2013-05-03 14:49:00,74.2,39.0,30.06,SSW,209,0.0,-999.0,28,-99.99,,,0.00,weatherlink.com 1.10,2013-05-03 18:49:00,
2013-05-03 15:04:00,74.6,37.0,30.06,ESE,113,2.0,-999.0,26,-99.99,,,0.00,weatherlink.com 1.10,2013-05-03 19:04:00,
2013-05-03 15:19:00,74.6,37.0,30.06,East,95,7.0,-999.0,26,-99.99,,,0.00,weatherlink.com 1.10,2013-05-03 19:19:00,
2013-05-03 15:34:00,75.1,40.0,30.05,SE,124,4.0,-999.0,28,-99.99,,,0.00,weatherlink.com 1.10,2013-05-03 19:34:00,
2013-05-03 15:49:00,74.9,37.0,30.05,NE,42,2.0,-999.0,25,-99.99,,,0.00,weatherlink.com 1.10,2013-05-03 19:49:00,
2013-05-03 16:04:00,74.6,35.0,30.05,NNE,28,1.0,-999.0,24,-99.99,,,0.00,weatherlink.com 1.10,2013-05-03 20:04:00,
2013-05-03 16:19:00,74.6,36.0,30.04,South,181,1.0,-999.0,25,-99.99,,,0.00,weatherlink.com 1.10,2013-05-03 20:19:00,
2013-05-03 16:34:00,74.7,37.0,30.04,ENE,62,2.0,-999.0,25,-99.99,,,0.00,weatherlink.com 1.10,2013-05-03 20:34:00,
2013-05-03 16:49:00,74.6,37.0,30.04,East,79,11.0,-999.0,26,-99.99,,,0.00,weatherlink.com 1.10,2013-05-03 20:49:00,
2013-05-03 17:04:00,74.9,36.0,30.04,SSE,165,11.0,-999.0,24,-99.99,,,0.00,weatherlink.com 1.10,2013-05-03 21:04:00,
2013-05-03 17:19:00,74.4,37.0,30.03,South,178,0.0,-999.0,26,-99.99,,,0.00,weatherlink.com 1.10,2013-05-03 21:19:00,
2013-05-03 17:34:00,74.2,39.0,30.04,ESE,109,1.0,-999.0,28,-99.99,,,0.00,weatherlink.com 1.10,2013-05-03 21:34:00,
2013-05-03 17:49:00,74.0,37.0,30.04,ESE,107,3.0,-999.0,26,-99.99,,,0.00,weatherlink.com 1.10,2013-05-03 21:49:00,
2013-05-03 18:04:00,74.4,38.0,30.03,ENE,75,5.0,-999.0,27,-99.99,,,0.00,weatherlink.com 1.10,2013-05-03 22:04:00,
2013-05-03 18:19:00,73.5,37.0,30.04,SSE,167,0.0,-999.0,27,-99.99,,,0.00,weatherlink.com 1.10,2013-05-03 22:19:00,
2013-05-03 18:34:00,72.8,37.0,30.04,NNE,28,2.0,-999.0,27,-99.99,,,0.00,weatherlink.com 1.10,2013-05-03 22:34:00,
2013-05-03 18:49:00,72.0,38.0,30.04,ENE,65,7.0,-999.0,29,-99.99,,,0.00,weatherlink.com 1.10,2013-05-03 22:49:00,
2013-05-03 19:04:00,71.3,36.0,30.03,South,181,2.0,-999.0,28,-99.99,,,0.00,weatherlink.com 1.10,2013-05-03 23:04:00,
2013-05-03 19:19:00,70.8,36.0,30.04,SE,127,5.0,-999.0,28,-99.99,,,0.00,weatherlink.com 1.10,2013-05-03 23:19:00,
2013-05-03 19:34:00,70.4,37.0,30.04,SSE,157,0.0,-999.0,30,-99.99,,,0.00,weatherlink.com 1.10,2013-05-03 23:34:00,
2013-05-03 19:49:00,69.8,37.0,30.04,ESE,117,0.0,-999.0,30,-99.99,,,0.00,weatherlink.com 1.10,2013-05-03 23:49:00,
2013-05-03 20:04:00,68.9,38.0,30.04,East,97,2.0,-999.0,32,-99.99,,,0.00,weatherlink.com 1.10,2013-05-04 00:04:00,
2013-05-03 20:19:00,68.1,38.0,30.05,South,172,2.0,-999.0,33,-99.99,,,0.00,weatherlink.com 1.10,2013-05-04 00:19:00,
2013-05-03 20:34:00,67.3,39.0,30.05,SE,126,6.0,-999.0,35,-99.99,,,0.00,weatherlink.com 1.10,2013-05-04 00:34:00,
2013-05-03 20:49:00,66.6,39.0,30.05,SSE,155,0.0,-999.0,36,-99.99,,,0.00,weatherlink.com 1.10,2013-05-04 00:49:00,
2013-05-03 21:04:00,66.1,39.0,30.05,ESE,123,0.0,-999.0,37,-99.99,,,0.00,weatherlink.com 1.10,2013-05-04 01:04:00,
2013-05-03 21:19:00,65.3,39.0,30.07,ESE,119,1.0,-999.0,38,-99.99,,,0.00,weatherlink.com 1.10,2013-05-04 01:19:00,
2013-05-03 21:34:00,65.0,40.0,30.07,ESE,121,2.0,-999.0,40,-99.99,,,0.00,weatherlink.com 1.10,2013-05-04 01:34:00,
2013-05-03 21:49:00,64.3,40.0,30.07,ENE,58,3.0,-999.0,41,-99.99,,,0.00,weatherlink.com 1.10,2013-05-04 01:49:00,
2013-05-03 22:04:00,63.7,39.0,30.07,NE,47,0.0,-999.0,41,-99.99,,,0.00,weatherlink.com 1.10,2013-05-04 02:04:00,
2013-05-03 22:19:00,63.2,40.0,30.07,SE,133,4.0,-999.0,43,-99.99,,,0.00,weatherlink.com 1.10,2013-05-04 02:19:00,
2013-05-03 22:34:00,62.9,40.0,30.07,SE,145,0.0,-999.0,43,-99.99,,,0.00,weatherlink.com 1.10,2013-05-04 02:34:00,
2013-05-03 22:49:00,62.7,40.0,30.07,ENE,68,0.0,-999.0,44,-99.99,,,0.00,weatherlink.com 1.10,2013-05-04 02:49:00,
2013-05-03 23:04:00,62.1,40.0,30.06,SE,138,4.0,-999.0,45,-99.99,,,0.00,weatherlink.com 1.10,2013-05-04 03:04:00,
2013-05-03 23:19:00,61.5,40.0,30.07,SSE,155,0.0,-999.0,46,-99.99,,,0.00,weatherlink.com 1.10,2013-05-04 03:19:00,
2013-05-03 23:34:00,61.2,40.0,30.07,East,82,0.0,-999.0,46,-99.99,,,0.00,weatherlink.com 1.10,2013-05-04 03:34:00,
2013-05-03 23:49:00,60.9,40.0,30.07,East,82,0.0,-999.0,47,-99.99,,,0.00,weatherlink.com 1.10,2013-05-04 03:49:00,